Time;durP1;ratioP1;P1;durP2;ratioP2;P2;SDS_P1;SDS_P2;PMS_P1;PMS_P2;Temp;Humidity;BMP_temperature;BMP_pressure;BME280_temperature;BME280_humidity;BME280_pressure;Samples;Min_cycle;Max_cycle;Signal;HPM_P1;HPM_P2
2022/08/20 00:01:25;;;;;;;9.65;8.65;;;;;;;20.44;70.14;100562.03;5069941;28;20399;-23
2022/08/20 00:03:51;;;;;;;8.90;8.10;;;;;;;20.46;70.30;100562.81;5053661;28;20021;-23
2022/08/20 00:06:20;;;;;;;8.85;7.95;;;;;;;20.44;69.97;100559.34;5051933;28;20055;-23
2022/08/20 00:08:46;;;;;;;8.60;7.80;;;;;;;20.43;70.19;100546.88;5052352;28;20032;-23
2022/08/20 00:11:16;;;;;;;8.65;7.75;;;;;;;20.42;70.27;100550.53;5069223;28;20070;-23
2022/08/20 00:13:51;;;;;;;9.40;8.50;;;;;;;20.43;70.02;100545.09;5069489;28;20075;-23
2022/08/20 00:16:19;;;;;;;8.82;8.00;;;;;;;20.41;69.94;100544.31;5072538;28;20111;-23
2022/08/20 00:18:45;;;;;;;9.05;8.13;;;;;;;20.40;69.95;100541.72;5072262;28;20031;-23
2022/08/20 00:21:13;;;;;;;8.18;7.38;;;;;;;20.37;69.97;100548.94;5070382;28;20036;-23
2022/08/20 00:23:44;;;;;;;9.27;8.38;;;;;;;20.37;70.18;100543.59;5073619;28;20016;-23
2022/08/20 00:26:10;;;;;;;8.18;7.38;;;;;;;20.36;70.16;100549.91;5069483;28;20025;-25
2022/08/20 00:28:36;;;;;;;9.63;8.82;;;;;;;20.35;70.52;100555.34;5069788;28;20025;-23
2022/08/20 00:31:05;;;;;;;9.63;7.90;;;;;;;20.34;70.38;100549.09;5074254;28;20525;-23
2022/08/20 00:33:30;;;;;;;8.93;8.10;;;;;;;20.33;70.24;100550.06;5071864;28;20020;-22
2022/08/20 00:35:56;;;;;;;8.45;7.65;;;;;;;20.33;70.13;100554.53;5052836;28;20112;-23
2022/08/20 00:38:23;;;;;;;8.70;7.90;;;;;;;20.31;70.16;100554.63;5069336;28;20483;-23
2022/08/20 00:40:58;;;;;;;9.50;8.50;;;;;;;20.30;70.29;100563.59;5071565;28;20048;-23
2022/08/20 00:43:48;;;;;;;9.57;8.30;;;;;;;20.29;70.27;100556.53;5050691;28;20021;-23
2022/08/20 00:46:23;;;;;;;9.18;7.65;;;;;;;20.29;70.59;100561.00;5070282;28;20024;-23
2022/08/20 00:48:51;;;;;;;10.02;9.05;;;;;;;20.27;70.58;100558.41;5069138;28;20082;-22
2022/08/20 00:51:24;;;;;;;10.23;8.70;;;;;;;20.27;70.61;100558.41;5069827;28;20117;-24
2022/08/20 00:53:50;;;;;;;8.90;8.07;;;;;;;20.24;70.64;100555.91;5047441;28;20024;-23
2022/08/20 00:56:15;;;;;;;10.35;8.40;;;;;;;20.23;70.46;100552.34;5072309;28;20408;-23
2022/08/20 00:58:41;;;;;;;9.05;8.15;;;;;;;20.22;70.52;100550.63;5072981;28;20020;-23
2022/08/20 01:01:08;;;;;;;8.60;7.80;;;;;;;20.24;70.69;100542.53;5052310;28;20078;-23
2022/08/20 01:03:33;;;;;;;8.10;6.95;;;;;;;20.21;70.46;100548.88;5066867;28;20380;-23
2022/08/20 01:05:59;;;;;;;9.18;8.27;;;;;;;20.22;70.59;100547.06;5053321;28;20016;-23
2022/08/20 01:08:25;;;;;;;8.30;7.50;;;;;;;20.20;70.51;100560.53;5053726;28;20033;-22
2022/08/20 01:10:52;;;;;;;9.15;8.23;;;;;;;20.19;70.49;100563.28;5068933;28;20484;-23
2022/08/20 01:13:20;;;;;;;9.35;8.38;;;;;;;20.18;70.72;100569.59;5052843;28;20036;-23
2022/08/20 01:15:50;;;;;;;9.05;8.13;;;;;;;20.15;70.88;100564.41;5049101;28;20442;-23
2022/08/20 01:18:25;;;;;;;9.80;8.85;;;;;;;20.14;71.18;100568.88;5069353;28;20027;-23
2022/08/20 01:20:57;;;;;;;9.93;9.02;;;;;;;20.12;71.02;100571.66;5051055;28;20115;-23
2022/08/20 01:23:31;;;;;;;8.63;7.85;;;;;;;20.11;71.17;100564.53;5066390;28;20294;-23
2022/08/20 01:26:12;;;;;;;9.95;8.18;;;;;;;20.09;71.22;100560.22;5074137;28;20058;-23
2022/08/20 01:28:49;;;;;;;9.05;8.23;;;;;;;20.09;71.25;100555.75;5070873;28;20055;-22
2022/08/20 01:31:18;;;;;;;9.50;8.52;;;;;;;20.08;70.96;100550.47;5050451;28;20032;-22
2022/08/20 01:33:44;;;;;;;8.32;7.63;;;;;;;20.08;70.76;100556.66;5066025;28;20148;-22
2022/08/20 01:36:10;;;;;;;9.20;8.25;;;;;;;20.08;71.06;100553.16;5050260;28;20187;-23
2022/08/20 01:38:36;;;;;;;9.52;8.63;;;;;;;20.04;71.19;100552.41;5070591;28;20016;-23
2022/08/20 01:41:20;;;;;;;9.10;8.20;;;;;;;20.05;71.31;100546.16;5069284;28;20495;-23
2022/08/20 01:43:47;;;;;;;11.15;9.18;;;;;;;20.03;70.98;100542.66;5064918;28;20470;-22
2022/08/20 01:46:13;;;;;;;8.38;7.55;;;;;;;20.04;70.94;100549.75;5050281;28;20021;-22
2022/08/20 01:48:40;;;;;;;9.43;8.48;;;;;;;20.02;71.24;100550.78;5052581;28;20035;-22
2022/08/20 01:51:19;;;;;;;9.63;8.48;;;;;;;20.02;70.88;100548.97;5049228;28;20548;-23
2022/08/20 01:53:49;;;;;;;8.30;7.47;;;;;;;20.00;71.04;100554.41;5064866;28;20033;-23
2022/08/20 01:56:19;;;;;;;8.88;7.68;;;;;;;20.02;71.22;100559.69;5069591;28;20016;-23
2022/08/20 01:58:48;;;;;;;10.07;8.95;;;;;;;19.99;71.10;100552.69;5051497;28;20487;-22
2022/08/20 02:01:25;;;;;;;9.82;8.93;;;;;;;19.97;71.21;100556.31;5053142;28;20021;-23
2022/08/20 02:03:52;;;;;;;9.48;8.57;;;;;;;19.95;71.41;100552.88;5071022;28;20444;-23
2022/08/20 02:06:19;;;;;;;9.68;8.77;;;;;;;19.93;71.37;100555.63;5065521;28;20043;-23
2022/08/20 02:08:44;;;;;;;8.88;7.97;;;;;;;19.92;71.24;100553.03;5068042;28;20497;-23
2022/08/20 02:11:10;;;;;;;10.10;8.15;;;;;;;19.92;71.10;100559.25;5069988;28;20032;-23
2022/08/20 02:13:35;;;;;;;8.93;8.07;;;;;;;19.91;71.18;100567.34;5070020;28;20115;-23
2022/08/20 02:16:00;;;;;;;9.73;8.55;;;;;;;19.90;71.44;100574.50;5069552;28;20020;-23
2022/08/20 02:18:26;;;;;;;9.05;8.15;;;;;;;19.90;71.26;100576.34;5068928;28;20102;-23
2022/08/20 02:20:51;;;;;;;9.57;8.68;;;;;;;19.87;71.42;100575.53;5050534;28;20392;-23
2022/08/20 02:23:17;;;;;;;9.32;8.20;;;;;;;19.86;71.54;100576.47;5067483;28;20476;-23
2022/08/20 02:25:46;;;;;;;9.63;8.35;;;;;;;19.85;71.39;100580.06;5067084;28;20112;-22
2022/08/20 02:28:13;;;;;;;9.02;8.13;;;;;;;19.84;71.52;100573.00;5048090;28;20694;-23
2022/08/20 02:30:41;;;;;;;10.13;9.10;;;;;;;19.83;71.64;100576.63;5067875;28;20124;-23
2022/08/20 02:33:09;;;;;;;9.02;8.13;;;;;;;19.82;71.81;100580.25;5062499;28;20086;-23
2022/08/20 02:35:35;;;;;;;10.63;8.88;;;;;;;19.83;71.70;100586.44;5066468;28;20103;-23
2022/08/20 02:38:00;;;;;;;10.48;8.93;;;;;;;19.82;71.72;100576.69;5069760;28;20027;-23
2022/08/20 02:40:26;;;;;;;9.18;8.27;;;;;;;19.81;71.66;100591.88;5067481;28;20071;-23
2022/08/20 02:42:52;;;;;;;10.18;9.05;;;;;;;19.80;71.80;100591.94;5065168;28;20031;-23
2022/08/20 02:45:19;;;;;;;10.00;9.00;;;;;;;19.78;72.08;100589.38;5067104;28;20380;-23
2022/08/20 02:47:45;;;;;;;9.38;8.43;;;;;;;19.78;71.74;100584.03;5067018;28;20016;-23
2022/08/20 02:50:13;;;;;;;9.95;8.95;;;;;;;19.75;71.94;100585.00;5066994;28;20033;-23
2022/08/20 02:52:39;;;;;;;9.88;8.88;;;;;;;19.75;71.59;100589.53;5067730;28;20490;-22
2022/08/20 02:55:05;;;;;;;10.20;9.20;;;;;;;19.74;71.44;100588.66;5069066;28;20020;-23
2022/08/20 02:57:31;;;;;;;10.52;9.43;;;;;;;19.74;71.51;100598.50;5070349;28;20020;-23
2022/08/20 02:59:56;;;;;;;10.27;8.77;;;;;;;19.72;72.14;100590.53;5067029;28;20435;-23
2022/08/20 03:02:21;;;;;;;9.77;8.38;;;;;;;19.71;71.99;100595.97;5047352;28;20075;-23
2022/08/20 03:04:47;;;;;;;8.70;7.90;;;;;;;19.70;72.00;100588.88;5069532;28;20503;-23
2022/08/20 03:07:13;;;;;;;10.80;9.18;;;;;;;19.70;72.00;100596.88;5069762;28;20045;-23
2022/08/20 03:09:39;;;;;;;10.25;9.05;;;;;;;19.70;71.70;100596.88;5064227;28;20492;-23
2022/08/20 03:12:06;;;;;;;9.02;8.13;;;;;;;19.68;71.85;100593.44;5066769;28;20019;-23
2022/08/20 03:14:32;;;;;;;9.45;8.45;;;;;;;19.68;71.78;100593.44;5067018;28;20018;-23
2022/08/20 03:16:58;;;;;;;8.77;7.90;;;;;;;19.66;72.21;100593.50;5048585;28;20025;-23
2022/08/20 03:19:24;;;;;;;10.77;9.18;;;;;;;19.66;71.51;100596.19;5064753;28;20104;-23
2022/08/20 03:21:50;;;;;;;9.77;8.88;;;;;;;19.64;71.79;100591.84;5069010;28;20031;-23
2022/08/20 03:24:15;;;;;;;9.98;8.65;;;;;;;19.64;71.79;100587.34;5067512;28;20008;-23
2022/08/20 03:26:41;;;;;;;10.93;8.80;;;;;;;19.63;71.54;100590.13;5062571;28;20054;-23
2022/08/20 03:29:06;;;;;;;11.15;8.68;;;;;;;19.63;71.75;100584.78;5066241;28;20016;-23
2022/08/20 03:31:32;;;;;;;10.45;9.43;;;;;;;19.61;72.09;100599.06;5063794;28;20044;-22
2022/08/20 03:33:57;;;;;;;9.30;8.40;;;;;;;19.60;72.11;100586.66;5047274;28;20358;-23
2022/08/20 03:36:24;;;;;;;11.02;9.93;;;;;;;19.59;72.15;100587.59;5067522;28;20025;-23
2022/08/20 03:38:49;;;;;;;9.68;8.68;;;;;;;19.59;72.38;100586.72;5068747;28;20537;-23
2022/08/20 03:41:14;;;;;;;10.63;9.52;;;;;;;19.58;72.50;100583.16;5066262;28;20105;-23
2022/08/20 03:43:40;;;;;;;14.43;10.80;;;;;;;19.57;72.59;100578.78;5066344;28;20023;-22
2022/08/20 03:46:06;;;;;;;9.88;8.85;;;;;;;19.55;72.53;100583.34;5071911;28;20032;-23
2022/08/20 03:48:32;;;;;;;10.43;9.38;;;;;;;19.56;72.28;100585.06;5070808;28;20021;-23
2022/08/20 03:50:59;;;;;;;11.95;10.13;;;;;;;19.55;72.52;100585.13;5064081;28;20400;-23
2022/08/20 03:53:30;;;;;;;13.38;10.60;;;;;;;19.54;72.24;100576.22;5065550;28;20021;-24
2022/08/20 03:55:59;;;;;;;11.27;9.60;;;;;;;19.55;72.72;100577.13;5052197;28;20052;-23
2022/08/20 03:58:28;;;;;;;11.82;10.63;;;;;;;19.53;73.01;100574.50;5068352;28;20712;-23
2022/08/20 04:00:54;;;;;;;12.98;10.38;;;;;;;19.53;72.85;100577.19;5069939;28;20017;-23
2022/08/20 04:03:21;;;;;;;11.23;10.13;;;;;;;19.53;72.96;100573.63;5068051;28;20120;-23
2022/08/20 04:05:47;;;;;;;11.25;9.73;;;;;;;19.52;72.61;100572.78;5070408;28;20093;-23
2022/08/20 04:08:21;;;;;;;12.18;9.98;;;;;;;19.52;72.58;100578.13;5046889;28;20092;-23
2022/08/20 04:10:48;;;;;;;11.40;9.80;;;;;;;19.50;72.26;100582.69;5067411;28;20023;-23
2022/08/20 04:13:15;;;;;;;11.38;9.43;;;;;;;19.49;73.05;100583.63;5071506;28;20062;-23
2022/08/20 04:15:40;;;;;;;12.90;10.30;;;;;;;19.47;73.19;100585.50;5070523;28;20024;-23
2022/08/20 04:18:07;;;;;;;11.10;10.00;;;;;;;19.46;72.68;100578.41;5071247;28;20020;-23
2022/08/20 04:20:35;;;;;;;11.52;9.88;;;;;;;19.47;72.32;100580.16;5070150;28;20047;-23
2022/08/20 04:23:01;;;;;;;12.38;9.55;;;;;;;19.48;72.73;100587.25;5049093;28;20023;-23
2022/08/20 04:25:28;;;;;;;11.55;10.35;;;;;;;19.44;72.65;100575.81;5067339;28;20016;-23
2022/08/20 04:27:53;;;;;;;10.05;9.00;;;;;;;19.45;72.47;100582.03;5069270;28;20507;-23
2022/08/20 04:30:22;;;;;;;10.35;9.15;;;;;;;19.43;72.89;100573.22;5069265;28;20025;-23
2022/08/20 04:32:48;;;;;;;10.95;9.77;;;;;;;19.42;72.78;100584.84;5051632;28;20135;-22
2022/08/20 04:35:16;;;;;;;10.63;9.63;;;;;;;19.43;72.54;100583.91;5046281;28;20044;-22
2022/08/20 04:37:43;;;;;;;10.32;9.15;;;;;;;19.40;72.61;100582.25;5071466;28;20147;-23
2022/08/20 04:42:55;;;;;;;10.15;8.93;;;;;;;19.40;72.26;100587.59;5072217;28;20043;-23
2022/08/20 04:45:21;;;;;;;9.25;8.35;;;;;;;19.41;72.42;100585.81;5066681;28;20124;-23
2022/08/20 04:47:48;;;;;;;10.73;9.30;;;;;;;19.40;72.40;100584.94;5067272;28;20432;-23
2022/08/20 04:50:13;;;;;;;10.10;9.10;;;;;;;19.40;72.37;100590.28;5073025;28;20162;-23
2022/08/20 04:52:39;;;;;;;10.77;9.52;;;;;;;19.41;72.43;100601.84;5068106;28;20099;-23
2022/08/20 04:55:05;;;;;;;10.68;9.57;;;;;;;19.41;72.25;100593.81;5053630;28;20103;-22
2022/08/20 04:57:32;;;;;;;10.65;9.63;;;;;;;19.39;72.51;100603.72;5070732;28;20502;-23
2022/08/20 04:59:57;;;;;;;11.02;9.32;;;;;;;19.40;72.31;100606.31;5066036;28;20491;-23
2022/08/20 05:02:22;;;;;;;10.38;9.00;;;;;;;19.39;72.42;100603.72;5069574;28;20064;-23
2022/08/20 05:04:48;;;;;;;9.95;8.95;;;;;;;19.39;72.32;100609.94;5069631;28;20026;-24
2022/08/20 05:07:15;;;;;;;10.98;9.38;;;;;;;19.39;72.32;100615.28;5067830;28;20028;-23
2022/08/20 05:09:41;;;;;;;10.57;9.48;;;;;;;19.40;72.41;100622.38;5060244;28;20477;-23
2022/08/20 05:12:07;;;;;;;10.95;9.85;;;;;;;19.38;72.24;100616.25;5065500;28;20025;-23
2022/08/20 05:14:32;;;;;;;12.77;9.95;;;;;;;19.39;72.56;100614.41;5044343;28;20066;-23
2022/08/20 05:17:03;;;;;;;11.35;9.23;;;;;;;19.40;72.34;100618.84;5061566;28;20024;-23
2022/08/20 05:19:29;;;;;;;;;;;;;;;19.39;72.55;100614.41;5055935;28;20083;-22
2022/08/20 05:21:54;;;;;;;10.57;9.15;;;;;;;19.39;72.62;100615.28;5031796;28;19912;-23
2022/08/20 05:24:20;;;;;;;10.27;9.15;;;;;;;19.39;72.75;100614.41;5056199;28;20025;-23
2022/08/20 05:26:46;;;;;;;10.80;9.70;;;;;;;19.39;72.54;100617.09;5061952;28;20020;-22
2022/08/20 05:29:11;;;;;;;10.32;9.23;;;;;;;19.40;72.29;100618.84;5058348;28;20465;-23
2022/08/20 05:31:38;;;;;;;10.57;9.35;;;;;;;19.40;72.35;100613.50;5067349;28;20481;-23
2022/08/20 05:34:10;;;;;;;10.70;9.60;;;;;;;19.41;72.47;100623.25;5062515;28;20033;-23
2022/08/20 05:36:41;;;;;;;10.98;9.55;;;;;;;19.41;72.22;100629.44;5066678;28;20029;-22
2022/08/20 05:39:07;;;;;;;;;;;;;;;19.41;72.43;100629.44;5027843;28;20023;-23
2022/08/20 05:41:32;;;;;;;9.82;8.75;;;;;;;19.42;72.30;100641.91;5063952;28;20380;-23
2022/08/20 05:43:59;;;;;;;11.57;10.15;;;;;;;19.43;72.65;100627.56;5056482;28;20021;-23
2022/08/20 05:46:25;;;;;;;10.10;8.85;;;;;;;19.44;72.63;100639.16;5058695;28;20499;-22
2022/08/20 05:48:50;;;;;;;12.15;9.75;;;;;;;19.45;72.85;100633.72;5058160;28;20081;-23
2022/08/20 05:51:16;;;;;;;10.98;9.18;;;;;;;19.45;72.56;100636.41;5059670;28;20025;-22
2022/08/20 05:53:42;;;;;;;13.00;9.52;;;;;;;19.47;72.91;100638.97;5057333;28;20029;-23
2022/08/20 05:56:10;;;;;;;10.88;9.07;;;;;;;19.46;72.98;100634.59;5057209;28;20033;-23
2022/08/20 05:58:36;;;;;;;10.57;9.40;;;;;;;19.47;73.13;100639.88;5057482;28;20028;-23
2022/08/20 06:01:01;;;;;;;10.30;9.27;;;;;;;19.48;72.86;100632.72;5060147;28;20020;-22
2022/08/20 06:06:11;;;;;;;14.23;9.43;;;;;;;19.49;72.90;100624.63;5060275;28;20027;-23
2022/08/20 06:08:36;;;;;;;11.57;10.38;;;;;;;19.52;72.82;100636.97;5044877;28;20025;-23
2022/08/20 06:11:02;;;;;;;11.57;9.45;;;;;;;19.53;73.20;100627.13;5063080;28;20039;-22
2022/08/20 06:13:27;;;;;;;11.00;9.20;;;;;;;19.53;73.17;100630.69;5046742;28;20396;-23
2022/08/20 06:15:56;;;;;;;10.60;9.50;;;;;;;19.54;72.87;100629.72;5028731;28;20506;-23
2022/08/20 06:18:22;;;;;;;10.50;9.38;;;;;;;19.55;72.92;100635.97;5059572;28;20065;-23
2022/08/20 06:20:49;;;;;;;10.98;9.27;;;;;;;19.55;73.00;100626.13;5058631;28;20335;-23
2022/08/20 06:23:14;;;;;;;11.07;9.68;;;;;;;19.56;73.38;100627.88;5058376;28;20029;-23
2022/08/20 06:25:40;;;;;;;12.00;9.18;;;;;;;19.57;73.32;100645.63;5040076;28;20022;-23
2022/08/20 06:28:05;;;;;;;10.85;9.23;;;;;;;19.57;72.97;100634.94;5066869;28;20468;-23
2022/08/20 06:30:31;;;;;;;12.13;9.63;;;;;;;19.59;73.43;100637.53;5061155;28;20031;-23
2022/08/20 06:32:57;;;;;;;11.65;10.40;;;;;;;19.58;73.41;100631.31;5036140;28;20020;-23
2022/08/20 06:35:22;;;;;;;11.70;9.63;;;;;;;19.60;73.43;100637.47;5060769;28;20054;-23
2022/08/20 06:37:47;;;;;;;10.35;9.05;;;;;;;19.61;73.81;100644.56;5043418;28;20043;-23
2022/08/20 06:40:18;;;;;;;10.43;9.35;;;;;;;19.61;73.54;100641.88;5044457;28;20028;-23
2022/08/20 06:42:44;;;;;;;;;;;;;;;19.61;73.86;100647.22;5063800;28;20029;-23
2022/08/20 06:45:15;;;;;;;10.80;9.00;;;;;;;19.63;73.53;100649.84;5035604;28;20391;-23
2022/08/20 06:47:43;;;;;;;10.85;9.70;;;;;;;19.65;73.57;100657.78;5055529;28;20020;-23
2022/08/20 06:50:12;;;;;;;10.73;9.35;;;;;;;19.67;74.54;100658.59;5066143;28;20107;-22
2022/08/20 06:52:41;;;;;;;12.50;10.50;;;;;;;19.67;74.02;100656.75;5055409;28;20031;-25
2022/08/20 06:55:09;;;;;;;12.88;10.93;;;;;;;19.69;74.60;100657.56;5062613;28;20019;-23
2022/08/20 06:57:35;;;;;;;11.07;9.43;;;;;;;19.70;74.05;100670.00;5038123;28;20092;-23
2022/08/20 07:00:03;;;;;;;11.45;10.32;;;;;;;19.69;74.18;100662.03;5043846;28;20048;-23
2022/08/20 07:02:28;;;;;;;11.30;10.15;;;;;;;19.70;73.89;100659.31;5062876;28;20420;-24
2022/08/20 07:04:54;;;;;;;12.40;10.98;;;;;;;19.72;73.75;100664.59;5058372;28;20024;-23
2022/08/20 07:07:19;;;;;;;11.32;10.07;;;;;;;19.74;74.14;100673.41;5055168;28;20045;-22
2022/08/20 07:09:45;;;;;;;12.73;11.23;;;;;;;19.73;74.39;100671.66;5054404;28;20392;-23
2022/08/20 07:12:11;;;;;;;10.88;9.73;;;;;;;19.74;74.43;100682.28;5060941;28;20043;-23
2022/08/20 07:14:36;;;;;;;12.30;10.05;;;;;;;19.76;74.16;100679.53;5061111;28;20464;-22
2022/08/20 07:17:02;;;;;;;11.43;10.20;;;;;;;19.76;74.23;100682.22;5059907;28;20131;-22
2022/08/20 07:19:28;;;;;;;11.73;9.63;;;;;;;19.77;74.70;100681.28;5055829;28;20112;-22
2022/08/20 07:21:53;;;;;;;12.02;10.00;;;;;;;19.78;74.79;100680.34;5055299;28;20100;-22
2022/08/20 07:24:19;;;;;;;11.38;10.23;;;;;;;19.79;73.77;100687.44;5059644;28;20112;-23
2022/08/20 07:26:44;;;;;;;11.32;10.05;;;;;;;19.81;74.49;100682.00;5065526;28;20021;-22
2022/08/20 07:29:09;;;;;;;10.48;9.40;;;;;;;19.82;75.21;100686.41;5057038;28;20075;-23
2022/08/20 07:34:19;;;;;;;10.27;9.20;;;;;;;19.84;75.81;100690.75;5064116;28;20075;-23
2022/08/20 07:36:45;;;;;;;13.52;9.57;;;;;;;19.85;73.99;100695.16;5063009;28;20032;-24
2022/08/20 07:39:11;;;;;;;11.07;9.88;;;;;;;19.88;73.47;100703.03;5067602;28;20013;-22
2022/08/20 07:41:36;;;;;;;11.10;9.90;;;;;;;19.91;73.34;100706.53;5066458;28;20024;-23
2022/08/20 07:44:02;;;;;;;9.80;8.75;;;;;;;19.93;73.48;100705.50;5057425;28;20021;-23
2022/08/20 07:46:28;;;;;;;9.30;8.38;;;;;;;19.94;73.20;100701.03;5065080;28;20028;-22
2022/08/20 07:48:53;;;;;;;9.48;8.10;;;;;;;19.94;73.07;100701.88;5055316;28;20484;-23
2022/08/20 07:51:21;;;;;;;10.00;8.95;;;;;;;19.97;72.88;100704.41;5058678;28;20033;-22
2022/08/20 07:53:48;;;;;;;10.57;8.77;;;;;;;19.99;73.17;100702.56;5049602;28;20108;-22
2022/08/20 07:56:18;;;;;;;9.52;8.38;;;;;;;20.01;72.80;100707.84;5059844;28;20043;-22
2022/08/20 07:58:49;;;;;;;9.98;8.95;;;;;;;20.03;73.34;100697.91;5045924;28;20016;-23
2022/08/20 08:01:20;;;;;;;8.50;7.70;;;;;;;20.05;72.93;100706.75;5041926;28;20024;-23
2022/08/20 08:03:46;;;;;;;9.63;8.68;;;;;;;20.08;72.32;100708.41;5059954;28;20021;-23
2022/08/20 08:06:12;;;;;;;10.02;8.68;;;;;;;20.10;72.41;100701.16;5064806;28;20515;-23
2022/08/20 08:08:39;;;;;;;9.80;8.80;;;;;;;20.12;72.28;100710.00;5042685;28;20408;-23
2022/08/20 08:11:05;;;;;;;8.95;8.02;;;;;;;20.14;71.94;100710.78;5047887;28;20523;-23
2022/08/20 08:13:35;;;;;;;8.80;7.93;;;;;;;20.17;72.01;100712.44;5061619;28;20043;-23
2022/08/20 08:16:01;;;;;;;9.05;8.15;;;;;;;20.20;71.89;100706.91;5046634;28;20029;-23
2022/08/20 08:18:37;;;;;;;9.88;8.73;;;;;;;20.23;71.68;100712.13;5067177;28;20040;-23
2022/08/20 08:21:04;;;;;;;8.10;7.07;;;;;;;20.25;72.20;100710.25;5044766;28;20025;-23
2022/08/20 08:23:30;;;;;;;9.23;8.32;;;;;;;20.26;73.98;100703.94;5057716;28;20036;-22
2022/08/20 08:25:55;;;;;;;9.60;8.57;;;;;;;20.29;73.35;100710.97;5059546;28;20446;-23
2022/08/20 08:28:20;;;;;;;10.02;9.02;;;;;;;20.31;72.80;100703.72;5060482;28;20032;-22
2022/08/20 08:30:47;;;;;;;9.07;8.18;;;;;;;20.33;72.41;100710.75;5058847;28;20036;-22
2022/08/20 08:33:39;;;;;;;9.30;8.40;;;;;;;20.36;73.00;100713.28;5057455;28;20648;-23
2022/08/20 08:36:08;;;;;;;9.20;8.30;;;;;;;20.40;73.32;100721.16;5043947;28;20036;-23
2022/08/20 08:38:35;;;;;;;9.73;8.82;;;;;;;20.41;74.23;100714.84;5045034;28;20429;-23
2022/08/20 08:41:15;;;;;;;9.57;8.25;;;;;;;20.44;73.24;100715.56;5061963;28;20108;-23
2022/08/20 08:43:41;;;;;;;8.85;8.05;;;;;;;20.46;73.53;100716.34;5054989;28;20036;-22
2022/08/20 08:46:09;;;;;;;14.40;9.45;;;;;;;20.51;73.82;100716.13;5060552;28;20013;-22
2022/08/20 08:48:42;;;;;;;9.00;8.10;;;;;;;20.54;72.89;100721.31;5062999;28;20035;-23
2022/08/20 08:51:11;;;;;;;9.10;8.25;;;;;;;20.58;73.17;100717.53;5056797;28;20025;-22
2022/08/20 08:53:53;;;;;;;9.32;8.43;;;;;;;20.59;74.10;100721.97;5063270;28;20020;-22
2022/08/20 08:56:21;;;;;;;9.35;8.45;;;;;;;20.63;73.16;100723.53;5045701;28;20037;-23
2022/08/20 08:58:47;;;;;;;9.80;8.80;;;;;;;20.68;72.82;100728.69;5040704;28;20033;-22
2022/08/20 09:01:16;;;;;;;10.18;9.18;;;;;;;20.71;73.00;100717.78;5051949;28;20016;-23
2022/08/20 09:03:44;;;;;;;10.05;9.10;;;;;;;20.74;73.76;100717.63;5070683;28;20066;-23
2022/08/20 09:06:14;;;;;;;10.55;9.55;;;;;;;20.79;73.21;100719.19;5071587;28;20032;-22
2022/08/20 09:08:46;;;;;;;10.38;9.38;;;;;;;20.81;73.58;100723.53;5056215;28;20020;-22
2022/08/20 09:11:12;;;;;;;14.05;12.00;;;;;;;20.85;73.34;100725.13;5067963;28;20423;-22
2022/08/20 09:13:37;;;;;;;10.82;9.73;;;;;;;20.88;72.74;100719.63;5053576;28;20228;-22
2022/08/20 09:16:03;;;;;;;12.07;10.48;;;;;;;20.92;74.17;100722.13;5070730;28;20098;-23
2022/08/20 09:18:28;;;;;;;10.63;9.65;;;;;;;20.95;73.39;100725.53;5060503;28;20139;-22
2022/08/20 09:20:54;;;;;;;12.00;10.65;;;;;;;21.01;72.87;100721.69;5069463;28;20031;-23
2022/08/20 09:23:19;;;;;;;10.80;9.70;;;;;;;21.05;72.90;100725.06;5070723;28;20392;-23
2022/08/20 09:25:45;;;;;;;13.15;10.32;;;;;;;21.07;73.64;100726.69;5048361;28;20089;-23
2022/08/20 09:28:10;;;;;;;11.85;10.65;;;;;;;21.09;73.28;100732.84;5065815;28;20032;-23
2022/08/20 09:30:36;;;;;;;12.80;11.50;;;;;;;21.09;73.27;100727.50;5068668;28;20027;-23
2022/08/20 09:33:01;;;;;;;12.88;11.57;;;;;;;21.13;73.84;100722.81;5067713;28;20473;-22
2022/08/20 09:35:27;;;;;;;15.55;12.32;;;;;;;21.17;73.84;100726.22;5045345;28;20543;-22
2022/08/20 09:37:53;;;;;;;12.63;10.88;;;;;;;21.24;73.25;100730.31;5052943;28;20021;-23
2022/08/20 09:40:19;;;;;;;13.73;11.85;;;;;;;21.26;73.55;100731.09;5068180;28;20047;-23
2022/08/20 09:42:45;;;;;;;14.13;12.63;;;;;;;21.31;73.46;100720.13;5068849;28;20024;-22
2022/08/20 09:45:11;;;;;;;13.88;12.35;;;;;;;21.35;72.78;100722.56;5069427;28;20020;-23
2022/08/20 09:47:37;;;;;;;12.02;10.75;;;;;;;21.41;72.39;100722.22;5066143;28;20021;-23
2022/08/20 09:50:03;;;;;;;12.00;10.80;;;;;;;21.46;72.29;100729.16;5070393;28;20024;-23
2022/08/20 09:52:31;;;;;;;13.40;12.00;;;;;;;21.52;72.49;100728.81;5066007;28;20027;-23
2022/08/20 09:55:00;;;;;;;14.07;12.15;;;;;;;21.54;72.75;100730.47;5068637;28;20074;-22
2022/08/20 09:57:26;;;;;;;11.80;10.60;;;;;;;21.62;71.89;100729.19;5049714;28;20033;-23
2022/08/20 09:59:56;;;;;;;13.18;11.80;;;;;;;21.67;72.43;100729.78;5067592;28;20020;-22
2022/08/20 10:02:22;;;;;;;13.82;11.00;;;;;;;21.71;72.09;100728.66;5069357;28;20035;-23
2022/08/20 10:04:47;;;;;;;14.02;12.60;;;;;;;21.73;72.58;100725.91;5071774;28;20392;-23
2022/08/20 10:07:12;;;;;;;14.60;12.70;;;;;;;21.83;72.41;100723.59;5065228;28;20055;-22
2022/08/20 10:09:38;;;;;;;12.98;11.77;;;;;;;21.90;71.94;100727.66;5066782;28;20468;-22
2022/08/20 10:12:04;;;;;;;15.23;13.25;;;;;;;21.96;71.96;100721.97;5066615;28;20023;-23
2022/08/20 10:14:30;;;;;;;14.18;12.73;;;;;;;22.04;71.97;100729.59;5067488;28;20392;-23
2022/08/20 10:16:56;;;;;;;14.35;12.95;;;;;;;22.10;71.80;100726.53;5075880;28;20016;-23
2022/08/20 10:19:22;;;;;;;14.45;13.05;;;;;;;22.21;71.20;100731.28;5066498;28;20153;-22
2022/08/20 10:21:49;;;;;;;13.73;12.38;;;;;;;22.28;71.45;100727.28;5066589;28;20058;-23
2022/08/20 10:24:15;;;;;;;14.88;13.27;;;;;;;22.38;71.12;100738.38;5069386;28;20020;-23
2022/08/20 10:26:40;;;;;;;14.82;13.32;;;;;;;22.45;70.74;100740.72;5064817;28;20025;-22
2022/08/20 10:29:05;;;;;;;14.23;12.48;;;;;;;22.50;70.88;100738.63;5066621;28;20066;-22
2022/08/20 10:31:31;;;;;;;15.20;13.75;;;;;;;22.62;70.22;100737.94;5047089;28;20539;-23
2022/08/20 10:33:56;;;;;;;14.60;13.10;;;;;;;22.68;70.06;100740.25;5069914;28;20382;-22
2022/08/20 10:36:21;;;;;;;15.27;13.88;;;;;;;22.75;69.45;100734.53;5069747;28;20411;-22
2022/08/20 10:38:47;;;;;;;14.68;13.27;;;;;;;22.83;69.88;100742.97;5068154;28;20028;-22
2022/08/20 10:41:13;;;;;;;13.90;12.52;;;;;;;22.86;69.61;100737.44;5049626;28;20401;-22
2022/08/20 10:43:38;;;;;;;14.50;13.18;;;;;;;22.93;69.91;100733.41;5066625;28;20130;-24
2022/08/20 10:46:03;;;;;;;15.05;13.65;;;;;;;23.03;69.62;100727.47;5047566;28;20024;-23
2022/08/20 10:48:29;;;;;;;13.23;11.93;;;;;;;23.12;68.96;100726.91;5062914;28;20484;-22
2022/08/20 10:50:54;;;;;;;13.05;11.85;;;;;;;23.19;68.99;100738.16;5051938;28;20027;-22
2022/08/20 10:53:19;;;;;;;13.27;11.98;;;;;;;23.23;68.96;100726.25;5067715;28;20252;-23
2022/08/20 10:55:45;;;;;;;14.02;12.63;;;;;;;23.31;68.32;100729.31;5051939;28;20479;-22
2022/08/20 10:58:11;;;;;;;13.32;11.93;;;;;;;23.39;67.88;100723.50;5044580;28;20479;-22
2022/08/20 11:00:38;;;;;;;14.07;12.63;;;;;;;23.42;67.41;100720.63;5064264;28;20025;-23
2022/08/20 11:03:03;;;;;;;13.23;11.93;;;;;;;23.52;67.04;100728.09;5067399;28;20024;-23
2022/08/20 11:05:29;;;;;;;13.10;11.75;;;;;;;23.58;67.39;100725.88;5065143;28;20029;-22
2022/08/20 11:07:54;;;;;;;11.57;10.48;;;;;;;23.67;67.47;100728.94;5064462;28;20024;-22
2022/08/20 11:10:20;;;;;;;12.98;11.68;;;;;;;23.75;67.20;100728.47;5069454;28;20019;-23
2022/08/20 11:12:46;;;;;;;12.65;11.43;;;;;;;23.84;66.81;100722.47;5067945;28;20103;-22
2022/08/20 11:15:11;;;;;;;14.23;11.40;;;;;;;23.94;66.70;100737.06;5068640;28;20107;-23
2022/08/20 11:17:40;;;;;;;11.50;10.45;;;;;;;24.06;66.38;100726.47;5061367;28;20039;-22
2022/08/20 11:20:07;;;;;;;12.50;11.40;;;;;;;24.07;66.28;100728.19;5066364;28;20388;-23
2022/08/20 11:22:32;;;;;;;12.02;10.85;;;;;;;24.17;65.95;100728.50;5061591;28;20024;-23
2022/08/20 11:24:58;;;;;;;12.43;11.27;;;;;;;24.24;65.58;100726.25;5051322;28;20021;-23
2022/08/20 11:27:26;;;;;;;13.57;12.32;;;;;;;24.31;65.60;100730.28;5069516;28;20054;-22